sensor_id;sensor_type;location;lat;lon;timestamp;P1;durP1;ratioP1;P2;durP2;ratioP2
81841;SDS011;71284;50.918;7.092;2023-07-31T00:01:27;7.27;;;2.40;;
81841;SDS011;71284;50.918;7.092;2023-07-31T00:03:54;4.83;;;2.57;;
81841;SDS011;71284;50.918;7.092;2023-07-31T00:06:20;6.73;;;3.17;;
81841;SDS011;71284;50.918;7.092;2023-07-31T00:08:47;9.33;;;2.93;;
81841;SDS011;71284;50.918;7.092;2023-07-31T00:11:14;11.77;;;3.70;;
81841;SDS011;71284;50.918;7.092;2023-07-31T00:13:40;5.07;;;3.20;;
81841;SDS011;71284;50.918;7.092;2023-07-31T00:16:07;7.67;;;2.70;;
81841;SDS011;71284;50.918;7.092;2023-07-31T00:18:33;8.00;;;2.87;;
81841;SDS011;71284;50.918;7.092;2023-07-31T00:21:00;7.40;;;3.63;;
81841;SDS011;71284;50.918;7.092;2023-07-31T00:23:27;7.73;;;3.40;;
81841;SDS011;71284;50.918;7.092;2023-07-31T00:25:53;5.27;;;3.50;;
81841;SDS011;71284;50.918;7.092;2023-07-31T00:28:20;12.03;;;3.87;;
81841;SDS011;71284;50.918;7.092;2023-07-31T00:30:46;12.73;;;4.13;;
81841;SDS011;71284;50.918;7.092;2023-07-31T00:33:13;9.23;;;3.50;;
81841;SDS011;71284;50.918;7.092;2023-07-31T00:35:39;8.60;;;3.40;;
81841;SDS011;71284;50.918;7.092;2023-07-31T00:38:06;8.17;;;3.53;;
81841;SDS011;71284;50.918;7.092;2023-07-31T00:40:34;10.20;;;3.87;;
81841;SDS011;71284;50.918;7.092;2023-07-31T00:43:00;15.67;;;3.40;;
81841;SDS011;71284;50.918;7.092;2023-07-31T00:45:27;7.37;;;2.87;;
81841;SDS011;71284;50.918;7.092;2023-07-31T00:47:53;17.50;;;3.40;;
81841;SDS011;71284;50.918;7.092;2023-07-31T00:50:21;6.00;;;2.90;;
81841;SDS011;71284;50.918;7.092;2023-07-31T00:52:46;5.90;;;3.27;;
81841;SDS011;71284;50.918;7.092;2023-07-31T00:55:13;8.83;;;4.17;;
81841;SDS011;71284;50.918;7.092;2023-07-31T00:57:40;7.03;;;3.53;;
81841;SDS011;71284;50.918;7.092;2023-07-31T01:00:07;7.27;;;3.07;;
81841;SDS011;71284;50.918;7.092;2023-07-31T01:02:34;5.37;;;2.77;;
81841;SDS011;71284;50.918;7.092;2023-07-31T01:05:01;7.20;;;2.97;;
81841;SDS011;71284;50.918;7.092;2023-07-31T01:07:31;3.57;;;2.70;;
81841;SDS011;71284;50.918;7.092;2023-07-31T01:10:15;12.20;;;3.37;;
81841;SDS011;71284;50.918;7.092;2023-07-31T01:12:38;16.93;;;3.53;;
81841;SDS011;71284;50.918;7.092;2023-07-31T01:15:05;7.20;;;3.40;;
81841;SDS011;71284;50.918;7.092;2023-07-31T01:17:32;5.20;;;2.90;;
81841;SDS011;71284;50.918;7.092;2023-07-31T01:19:59;4.03;;;2.80;;
81841;SDS011;71284;50.918;7.092;2023-07-31T01:22:35;2.67;;;2.30;;
81841;SDS011;71284;50.918;7.092;2023-07-31T01:25:10;8.33;;;2.70;;
81841;SDS011;71284;50.918;7.092;2023-07-31T01:27:57;11.37;;;3.90;;
81841;SDS011;71284;50.918;7.092;2023-07-31T01:30:21;8.67;;;2.63;;
81841;SDS011;71284;50.918;7.092;2023-07-31T01:32:47;6.03;;;3.10;;
81841;SDS011;71284;50.918;7.092;2023-07-31T01:35:13;7.13;;;3.33;;
81841;SDS011;71284;50.918;7.092;2023-07-31T01:37:40;10.10;;;4.20;;
81841;SDS011;71284;50.918;7.092;2023-07-31T01:40:06;7.43;;;3.20;;
81841;SDS011;71284;50.918;7.092;2023-07-31T01:42:33;9.07;;;2.97;;
81841;SDS011;71284;50.918;7.092;2023-07-31T01:45:00;5.73;;;3.10;;
81841;SDS011;71284;50.918;7.092;2023-07-31T01:47:26;12.93;;;3.40;;
81841;SDS011;71284;50.918;7.092;2023-07-31T01:49:53;5.43;;;2.80;;
81841;SDS011;71284;50.918;7.092;2023-07-31T01:52:20;9.70;;;2.70;;
81841;SDS011;71284;50.918;7.092;2023-07-31T01:54:46;13.50;;;2.63;;
81841;SDS011;71284;50.918;7.092;2023-07-31T01:57:13;7.70;;;2.73;;
81841;SDS011;71284;50.918;7.092;2023-07-31T01:59:39;3.60;;;2.27;;
81841;SDS011;71284;50.918;7.092;2023-07-31T02:02:06;2.47;;;2.00;;
81841;SDS011;71284;50.918;7.092;2023-07-31T02:04:33;5.20;;;2.87;;
81841;SDS011;71284;50.918;7.092;2023-07-31T02:06:59;6.37;;;2.90;;
81841;SDS011;71284;50.918;7.092;2023-07-31T02:09:26;6.07;;;2.73;;
81841;SDS011;71284;50.918;7.092;2023-07-31T02:11:52;4.53;;;2.73;;
81841;SDS011;71284;50.918;7.092;2023-07-31T02:14:19;6.67;;;2.83;;
81841;SDS011;71284;50.918;7.092;2023-07-31T02:16:46;6.93;;;2.80;;
81841;SDS011;71284;50.918;7.092;2023-07-31T02:19:12;2.87;;;2.67;;
81841;SDS011;71284;50.918;7.092;2023-07-31T02:21:39;6.03;;;2.77;;
81841;SDS011;71284;50.918;7.092;2023-07-31T02:24:05;5.50;;;2.90;;
81841;SDS011;71284;50.918;7.092;2023-07-31T02:26:32;2.63;;;2.43;;
81841;SDS011;71284;50.918;7.092;2023-07-31T02:28:58;5.90;;;2.50;;
81841;SDS011;71284;50.918;7.092;2023-07-31T02:31:25;8.80;;;3.17;;
81841;SDS011;71284;50.918;7.092;2023-07-31T02:33:52;4.20;;;2.30;;
81841;SDS011;71284;50.918;7.092;2023-07-31T02:36:18;4.30;;;2.53;;
81841;SDS011;71284;50.918;7.092;2023-07-31T02:38:45;2.73;;;2.43;;
81841;SDS011;71284;50.918;7.092;2023-07-31T02:41:11;7.47;;;2.53;;
81841;SDS011;71284;50.918;7.092;2023-07-31T02:43:38;9.67;;;3.37;;
81841;SDS011;71284;50.918;7.092;2023-07-31T02:46:05;4.33;;;2.60;;
81841;SDS011;71284;50.918;7.092;2023-07-31T02:48:31;3.23;;;2.67;;
81841;SDS011;71284;50.918;7.092;2023-07-31T02:50:58;3.90;;;2.67;;
81841;SDS011;71284;50.918;7.092;2023-07-31T02:53:24;8.00;;;2.80;;
81841;SDS011;71284;50.918;7.092;2023-07-31T02:55:51;6.93;;;3.10;;
81841;SDS011;71284;50.918;7.092;2023-07-31T02:58:18;5.43;;;3.30;;
81841;SDS011;71284;50.918;7.092;2023-07-31T03:00:44;4.83;;;2.23;;
81841;SDS011;71284;50.918;7.092;2023-07-31T03:03:11;5.30;;;2.43;;
81841;SDS011;71284;50.918;7.092;2023-07-31T03:05:37;7.70;;;2.30;;
81841;SDS011;71284;50.918;7.092;2023-07-31T03:08:04;4.33;;;2.80;;
81841;SDS011;71284;50.918;7.092;2023-07-31T03:10:31;4.50;;;2.20;;
81841;SDS011;71284;50.918;7.092;2023-07-31T03:12:58;11.40;;;3.37;;
81841;SDS011;71284;50.918;7.092;2023-07-31T03:15:25;9.00;;;3.47;;
81841;SDS011;71284;50.918;7.092;2023-07-31T03:17:51;11.10;;;3.43;;
81841;SDS011;71284;50.918;7.092;2023-07-31T03:20:18;7.20;;;3.00;;
81841;SDS011;71284;50.918;7.092;2023-07-31T03:22:44;5.67;;;2.77;;
81841;SDS011;71284;50.918;7.092;2023-07-31T03:25:11;8.37;;;4.00;;
81841;SDS011;71284;50.918;7.092;2023-07-31T03:27:38;3.63;;;2.93;;
81841;SDS011;71284;50.918;7.092;2023-07-31T03:30:05;6.03;;;2.90;;
81841;SDS011;71284;50.918;7.092;2023-07-31T03:32:32;6.40;;;2.97;;
81841;SDS011;71284;50.918;7.092;2023-07-31T03:34:59;10.10;;;3.00;;
81841;SDS011;71284;50.918;7.092;2023-07-31T03:37:25;8.60;;;3.23;;
81841;SDS011;71284;50.918;7.092;2023-07-31T03:39:51;5.97;;;3.47;;
81841;SDS011;71284;50.918;7.092;2023-07-31T03:42:18;8.43;;;2.87;;
81841;SDS011;71284;50.918;7.092;2023-07-31T03:44:45;6.40;;;3.27;;
81841;SDS011;71284;50.918;7.092;2023-07-31T03:47:11;20.33;;;3.30;;
81841;SDS011;71284;50.918;7.092;2023-07-31T03:49:38;18.37;;;4.00;;
81841;SDS011;71284;50.918;7.092;2023-07-31T03:52:04;6.23;;;3.37;;
81841;SDS011;71284;50.918;7.092;2023-07-31T03:54:31;5.30;;;3.43;;
81841;SDS011;71284;50.918;7.092;2023-07-31T03:56:58;5.13;;;2.93;;
81841;SDS011;71284;50.918;7.092;2023-07-31T03:59:24;6.27;;;3.27;;
81841;SDS011;71284;50.918;7.092;2023-07-31T04:01:51;4.77;;;3.77;;
81841;SDS011;71284;50.918;7.092;2023-07-31T04:04:18;9.93;;;3.73;;
81841;SDS011;71284;50.918;7.092;2023-07-31T04:06:44;12.30;;;4.63;;
81841;SDS011;71284;50.918;7.092;2023-07-31T04:09:11;4.23;;;3.50;;
81841;SDS011;71284;50.918;7.092;2023-07-31T04:11:37;11.67;;;2.87;;
81841;SDS011;71284;50.918;7.092;2023-07-31T04:14:04;8.43;;;3.90;;
81841;SDS011;71284;50.918;7.092;2023-07-31T04:16:30;6.57;;;3.53;;
81841;SDS011;71284;50.918;7.092;2023-07-31T04:18:57;6.87;;;3.77;;
81841;SDS011;71284;50.918;7.092;2023-07-31T04:21:24;8.33;;;3.53;;
81841;SDS011;71284;50.918;7.092;2023-07-31T04:23:50;6.30;;;3.53;;
81841;SDS011;71284;50.918;7.092;2023-07-31T04:26:17;12.83;;;3.67;;
81841;SDS011;71284;50.918;7.092;2023-07-31T04:28:43;6.27;;;3.83;;
81841;SDS011;71284;50.918;7.092;2023-07-31T04:31:10;6.83;;;3.10;;
81841;SDS011;71284;50.918;7.092;2023-07-31T04:33:37;6.93;;;3.60;;
81841;SDS011;71284;50.918;7.092;2023-07-31T04:36:04;10.60;;;3.70;;
81841;SDS011;71284;50.918;7.092;2023-07-31T04:38:30;13.03;;;4.20;;
81841;SDS011;71284;50.918;7.092;2023-07-31T04:40:57;14.23;;;3.70;;
81841;SDS011;71284;50.918;7.092;2023-07-31T04:43:24;5.57;;;3.20;;
81841;SDS011;71284;50.918;7.092;2023-07-31T04:45:50;13.43;;;4.03;;
81841;SDS011;71284;50.918;7.092;2023-07-31T04:48:17;5.10;;;3.30;;
81841;SDS011;71284;50.918;7.092;2023-07-31T04:50:44;9.20;;;3.33;;
81841;SDS011;71284;50.918;7.092;2023-07-31T04:53:10;8.20;;;3.53;;
81841;SDS011;71284;50.918;7.092;2023-07-31T04:55:37;8.90;;;3.67;;
81841;SDS011;71284;50.918;7.092;2023-07-31T04:58:03;6.67;;;3.40;;
81841;SDS011;71284;50.918;7.092;2023-07-31T05:00:30;5.00;;;3.70;;
81841;SDS011;71284;50.918;7.092;2023-07-31T05:02:57;6.73;;;3.70;;
81841;SDS011;71284;50.918;7.092;2023-07-31T05:05:23;10.60;;;4.20;;
81841;SDS011;71284;50.918;7.092;2023-07-31T05:07:50;8.77;;;3.30;;
81841;SDS011;71284;50.918;7.092;2023-07-31T05:10:16;6.43;;;3.50;;
81841;SDS011;71284;50.918;7.092;2023-07-31T05:12:43;6.23;;;3.47;;
81841;SDS011;71284;50.918;7.092;2023-07-31T05:15:10;10.83;;;3.93;;
81841;SDS011;71284;50.918;7.092;2023-07-31T05:17:36;4.23;;;3.27;;
81841;SDS011;71284;50.918;7.092;2023-07-31T05:20:04;4.47;;;4.07;;
81841;SDS011;71284;50.918;7.092;2023-07-31T05:22:31;7.17;;;3.03;;
81841;SDS011;71284;50.918;7.092;2023-07-31T05:24:57;6.33;;;3.23;;
81841;SDS011;71284;50.918;7.092;2023-07-31T05:27:24;6.87;;;3.50;;
81841;SDS011;71284;50.918;7.092;2023-07-31T05:29:51;11.67;;;3.63;;
81841;SDS011;71284;50.918;7.092;2023-07-31T05:32:17;10.10;;;2.77;;
81841;SDS011;71284;50.918;7.092;2023-07-31T05:34:44;6.20;;;3.20;;
81841;SDS011;71284;50.918;7.092;2023-07-31T05:37:10;5.87;;;3.00;;
81841;SDS011;71284;50.918;7.092;2023-07-31T05:39:37;7.40;;;3.30;;
81841;SDS011;71284;50.918;7.092;2023-07-31T05:42:04;5.47;;;3.10;;
81841;SDS011;71284;50.918;7.092;2023-07-31T05:44:31;5.07;;;2.90;;
81841;SDS011;71284;50.918;7.092;2023-07-31T05:46:57;10.23;;;3.80;;
81841;SDS011;71284;50.918;7.092;2023-07-31T05:49:24;4.40;;;3.50;;
81841;SDS011;71284;50.918;7.092;2023-07-31T05:51:50;4.53;;;2.97;;
81841;SDS011;71284;50.918;7.092;2023-07-31T05:54:17;6.30;;;3.87;;
81841;SDS011;71284;50.918;7.092;2023-07-31T05:56:44;3.87;;;3.43;;
81841;SDS011;71284;50.918;7.092;2023-07-31T05:59:11;10.80;;;3.67;;
81841;SDS011;71284;50.918;7.092;2023-07-31T06:01:37;7.87;;;4.57;;
81841;SDS011;71284;50.918;7.092;2023-07-31T06:04:03;4.80;;;2.53;;
81841;SDS011;71284;50.918;7.092;2023-07-31T06:06:30;9.03;;;3.77;;
81841;SDS011;71284;50.918;7.092;2023-07-31T06:08:57;6.33;;;3.17;;
81841;SDS011;71284;50.918;7.092;2023-07-31T06:11:23;10.00;;;3.60;;
81841;SDS011;71284;50.918;7.092;2023-07-31T06:13:50;5.10;;;3.67;;
81841;SDS011;71284;50.918;7.092;2023-07-31T06:16:16;4.20;;;3.20;;
81841;SDS011;71284;50.918;7.092;2023-07-31T06:18:43;15.50;;;3.73;;
81841;SDS011;71284;50.918;7.092;2023-07-31T06:21:09;6.10;;;3.00;;
81841;SDS011;71284;50.918;7.092;2023-07-31T06:23:36;7.93;;;4.00;;
81841;SDS011;71284;50.918;7.092;2023-07-31T06:26:03;6.67;;;3.97;;
81841;SDS011;71284;50.918;7.092;2023-07-31T06:28:29;6.27;;;3.30;;
81841;SDS011;71284;50.918;7.092;2023-07-31T06:30:56;4.30;;;3.40;;
81841;SDS011;71284;50.918;7.092;2023-07-31T06:33:22;10.13;;;4.30;;
81841;SDS011;71284;50.918;7.092;2023-07-31T06:35:50;3.83;;;3.43;;
81841;SDS011;71284;50.918;7.092;2023-07-31T06:38:18;6.53;;;3.57;;
81841;SDS011;71284;50.918;7.092;2023-07-31T06:40:44;4.87;;;3.17;;
81841;SDS011;71284;50.918;7.092;2023-07-31T06:43:10;6.77;;;3.90;;
81841;SDS011;71284;50.918;7.092;2023-07-31T06:45:37;14.80;;;3.27;;
81841;SDS011;71284;50.918;7.092;2023-07-31T06:48:04;3.60;;;3.20;;
81841;SDS011;71284;50.918;7.092;2023-07-31T06:50:30;8.43;;;3.80;;
81841;SDS011;71284;50.918;7.092;2023-07-31T06:52:57;6.20;;;3.87;;
81841;SDS011;71284;50.918;7.092;2023-07-31T06:55:24;5.80;;;3.20;;
81841;SDS011;71284;50.918;7.092;2023-07-31T06:57:50;7.07;;;3.60;;
81841;SDS011;71284;50.918;7.092;2023-07-31T07:00:17;7.03;;;3.67;;
81841;SDS011;71284;50.918;7.092;2023-07-31T07:02:43;6.30;;;3.90;;
81841;SDS011;71284;50.918;7.092;2023-07-31T07:05:10;3.67;;;3.27;;
81841;SDS011;71284;50.918;7.092;2023-07-31T07:07:36;8.57;;;4.03;;
81841;SDS011;71284;50.918;7.092;2023-07-31T07:10:03;6.60;;;3.63;;
81841;SDS011;71284;50.918;7.092;2023-07-31T07:12:31;5.70;;;3.33;;
81841;SDS011;71284;50.918;7.092;2023-07-31T07:14:57;5.00;;;3.77;;
81841;SDS011;71284;50.918;7.092;2023-07-31T07:17:24;4.43;;;3.23;;
81841;SDS011;71284;50.918;7.092;2023-07-31T07:19:50;5.40;;;3.07;;
81841;SDS011;71284;50.918;7.092;2023-07-31T07:22:17;5.20;;;3.83;;
81841;SDS011;71284;50.918;7.092;2023-07-31T07:24:43;8.37;;;3.20;;
81841;SDS011;71284;50.918;7.092;2023-07-31T07:27:10;14.90;;;3.40;;
81841;SDS011;71284;50.918;7.092;2023-07-31T07:29:37;3.83;;;3.53;;
81841;SDS011;71284;50.918;7.092;2023-07-31T07:32:03;3.10;;;2.73;;
81841;SDS011;71284;50.918;7.092;2023-07-31T07:34:30;5.90;;;3.57;;
81841;SDS011;71284;50.918;7.092;2023-07-31T07:36:57;13.63;;;4.63;;
81841;SDS011;71284;50.918;7.092;2023-07-31T07:39:23;8.27;;;4.07;;
81841;SDS011;71284;50.918;7.092;2023-07-31T07:41:50;3.20;;;2.90;;
81841;SDS011;71284;50.918;7.092;2023-07-31T07:44:16;8.00;;;3.80;;
81841;SDS011;71284;50.918;7.092;2023-07-31T07:46:43;5.67;;;3.63;;
81841;SDS011;71284;50.918;7.092;2023-07-31T07:49:10;5.20;;;2.93;;
81841;SDS011;71284;50.918;7.092;2023-07-31T07:51:36;9.33;;;3.87;;
81841;SDS011;71284;50.918;7.092;2023-07-31T07:54:03;7.40;;;3.20;;
81841;SDS011;71284;50.918;7.092;2023-07-31T07:56:29;6.27;;;5.03;;
81841;SDS011;71284;50.918;7.092;2023-07-31T07:58:56;6.63;;;4.20;;
81841;SDS011;71284;50.918;7.092;2023-07-31T08:01:22;5.37;;;3.90;;
81841;SDS011;71284;50.918;7.092;2023-07-31T08:03:49;7.37;;;3.70;;
81841;SDS011;71284;50.918;7.092;2023-07-31T08:06:16;9.10;;;3.70;;
81841;SDS011;71284;50.918;7.092;2023-07-31T08:08:42;9.47;;;4.43;;
81841;SDS011;71284;50.918;7.092;2023-07-31T08:11:09;6.07;;;4.43;;
81841;SDS011;71284;50.918;7.092;2023-07-31T08:13:35;5.90;;;3.57;;
81841;SDS011;71284;50.918;7.092;2023-07-31T08:16:03;9.40;;;3.70;;
81841;SDS011;71284;50.918;7.092;2023-07-31T08:18:30;5.10;;;3.10;;
81841;SDS011;71284;50.918;7.092;2023-07-31T08:20:57;7.30;;;4.10;;
81841;SDS011;71284;50.918;7.092;2023-07-31T08:23:23;7.90;;;4.13;;
81841;SDS011;71284;50.918;7.092;2023-07-31T08:25:50;5.60;;;3.13;;
81841;SDS011;71284;50.918;7.092;2023-07-31T08:28:16;6.57;;;4.20;;
81841;SDS011;71284;50.918;7.092;2023-07-31T08:30:43;9.60;;;4.47;;
81841;SDS011;71284;50.918;7.092;2023-07-31T08:33:10;3.33;;;3.00;;
81841;SDS011;71284;50.918;7.092;2023-07-31T08:35:36;4.40;;;3.97;;
81841;SDS011;71284;50.918;7.092;2023-07-31T08:38:03;5.70;;;3.23;;
81841;SDS011;71284;50.918;7.092;2023-07-31T08:40:29;4.93;;;3.30;;
81841;SDS011;71284;50.918;7.092;2023-07-31T08:42:56;5.80;;;3.90;;
81841;SDS011;71284;50.918;7.092;2023-07-31T08:45:23;10.10;;;4.83;;
81841;SDS011;71284;50.918;7.092;2023-07-31T08:47:50;4.73;;;4.00;;
81841;SDS011;71284;50.918;7.092;2023-07-31T08:50:17;6.30;;;3.73;;
81841;SDS011;71284;50.918;7.092;2023-07-31T08:52:42;5.17;;;3.63;;
81841;SDS011;71284;50.918;7.092;2023-07-31T08:55:09;8.53;;;3.80;;
81841;SDS011;71284;50.918;7.092;2023-07-31T08:57:37;3.83;;;3.50;;
81841;SDS011;71284;50.918;7.092;2023-07-31T09:00:02;5.77;;;3.03;;
81841;SDS011;71284;50.918;7.092;2023-07-31T09:02:41;6.70;;;3.13;;
81841;SDS011;71284;50.918;7.092;2023-07-31T09:05:05;10.13;;;3.30;;
81841;SDS011;71284;50.918;7.092;2023-07-31T09:07:31;4.83;;;3.53;;
81841;SDS011;71284;50.918;7.092;2023-07-31T09:09:58;3.77;;;3.40;;
81841;SDS011;71284;50.918;7.092;2023-07-31T09:12:25;4.10;;;3.60;;
81841;SDS011;71284;50.918;7.092;2023-07-31T09:14:51;5.90;;;3.43;;
81841;SDS011;71284;50.918;7.092;2023-07-31T09:17:28;9.70;;;3.47;;
81841;SDS011;71284;50.918;7.092;2023-07-31T09:19:44;10.83;;;3.40;;
81841;SDS011;71284;50.918;7.092;2023-07-31T09:22:11;10.27;;;3.60;;
81841;SDS011;71284;50.918;7.092;2023-07-31T09:24:37;5.40;;;3.17;;
81841;SDS011;71284;50.918;7.092;2023-07-31T09:27:05;7.53;;;3.70;;
81841;SDS011;71284;50.918;7.092;2023-07-31T09:29:31;5.47;;;3.27;;
81841;SDS011;71284;50.918;7.092;2023-07-31T09:31:58;9.10;;;3.60;;
81841;SDS011;71284;50.918;7.092;2023-07-31T09:34:30;3.00;;;2.80;;
81841;SDS011;71284;50.918;7.092;2023-07-31T09:36:58;4.57;;;3.30;;
81841;SDS011;71284;50.918;7.092;2023-07-31T09:39:22;5.37;;;4.10;;
81841;SDS011;71284;50.918;7.092;2023-07-31T09:41:53;8.20;;;3.63;;
81841;SDS011;71284;50.918;7.092;2023-07-31T09:44:19;3.70;;;3.10;;
81841;SDS011;71284;50.918;7.092;2023-07-31T09:46:46;7.70;;;3.10;;
81841;SDS011;71284;50.918;7.092;2023-07-31T09:49:13;6.33;;;3.83;;
81841;SDS011;71284;50.918;7.092;2023-07-31T09:51:40;4.47;;;3.00;;
81841;SDS011;71284;50.918;7.092;2023-07-31T09:54:09;16.03;;;4.10;;
81841;SDS011;71284;50.918;7.092;2023-07-31T09:56:37;7.20;;;3.80;;
81841;SDS011;71284;50.918;7.092;2023-07-31T09:59:03;8.43;;;4.13;;
81841;SDS011;71284;50.918;7.092;2023-07-31T10:01:29;5.90;;;3.40;;
81841;SDS011;71284;50.918;7.092;2023-07-31T10:03:56;7.53;;;3.40;;
81841;SDS011;71284;50.918;7.092;2023-07-31T10:06:23;6.50;;;3.67;;
81841;SDS011;71284;50.918;7.092;2023-07-31T10:08:49;12.10;;;3.40;;
81841;SDS011;71284;50.918;7.092;2023-07-31T10:11:16;6.60;;;3.33;;
81841;SDS011;71284;50.918;7.092;2023-07-31T10:13:42;5.67;;;4.10;;
81841;SDS011;71284;50.918;7.092;2023-07-31T10:16:09;4.53;;;3.23;;
81841;SDS011;71284;50.918;7.092;2023-07-31T10:18:35;12.73;;;4.07;;
81841;SDS011;71284;50.918;7.092;2023-07-31T10:21:02;7.63;;;3.70;;
81841;SDS011;71284;50.918;7.092;2023-07-31T10:23:28;3.83;;;3.53;;
81841;SDS011;71284;50.918;7.092;2023-07-31T10:25:55;4.33;;;3.27;;
81841;SDS011;71284;50.918;7.092;2023-07-31T10:28:22;8.03;;;3.30;;
81841;SDS011;71284;50.918;7.092;2023-07-31T10:30:48;7.57;;;2.77;;
81841;SDS011;71284;50.918;7.092;2023-07-31T10:33:15;7.50;;;2.87;;
81841;SDS011;71284;50.918;7.092;2023-07-31T10:35:42;10.47;;;3.00;;
81841;SDS011;71284;50.918;7.092;2023-07-31T10:38:10;3.20;;;2.87;;
81841;SDS011;71284;50.918;7.092;2023-07-31T10:40:36;3.37;;;2.67;;
81841;SDS011;71284;50.918;7.092;2023-07-31T10:43:03;5.60;;;3.10;;
81841;SDS011;71284;50.918;7.092;2023-07-31T10:45:31;13.47;;;3.10;;
81841;SDS011;71284;50.918;7.092;2023-07-31T10:48:00;7.87;;;3.40;;
81841;SDS011;71284;50.918;7.092;2023-07-31T10:50:26;3.93;;;3.03;;
81841;SDS011;71284;50.918;7.092;2023-07-31T10:52:54;3.33;;;2.53;;
81841;SDS011;71284;50.918;7.092;2023-07-31T10:58:07;7.73;;;3.70;;
81841;SDS011;71284;50.918;7.092;2023-07-31T11:00:42;4.80;;;3.40;;
81841;SDS011;71284;50.918;7.092;2023-07-31T11:03:10;4.10;;;2.70;;
81841;SDS011;71284;50.918;7.092;2023-07-31T11:05:43;4.47;;;3.23;;
81841;SDS011;71284;50.918;7.092;2023-07-31T11:08:22;18.40;;;3.20;;
81841;SDS011;71284;50.918;7.092;2023-07-31T11:10:50;5.60;;;3.37;;
81841;SDS011;71284;50.918;7.092;2023-07-31T11:13:16;5.40;;;2.90;;
81841;SDS011;71284;50.918;7.092;2023-07-31T11:15:43;3.93;;;2.97;;
81841;SDS011;71284;50.918;7.092;2023-07-31T11:18:09;6.23;;;3.20;;
81841;SDS011;71284;50.918;7.092;2023-07-31T11:20:36;4.20;;;2.97;;
81841;SDS011;71284;50.918;7.092;2023-07-31T11:23:03;10.17;;;2.30;;
81841;SDS011;71284;50.918;7.092;2023-07-31T11:25:30;2.13;;;1.90;;
81841;SDS011;71284;50.918;7.092;2023-07-31T11:27:56;2.97;;;1.50;;
81841;SDS011;71284;50.918;7.092;2023-07-31T11:30:23;5.57;;;1.00;;
81841;SDS011;71284;50.918;7.092;2023-07-31T11:32:49;1.23;;;1.17;;
81841;SDS011;71284;50.918;7.092;2023-07-31T11:35:16;5.13;;;1.00;;
81841;SDS011;71284;50.918;7.092;2023-07-31T11:37:43;1.83;;;1.10;;
81841;SDS011;71284;50.918;7.092;2023-07-31T11:40:09;1.63;;;1.37;;
81841;SDS011;71284;50.918;7.092;2023-07-31T11:42:37;2.00;;;1.10;;
81841;SDS011;71284;50.918;7.092;2023-07-31T11:45:04;1.17;;;1.07;;
81841;SDS011;71284;50.918;7.092;2023-07-31T11:47:32;1.80;;;1.27;;
81841;SDS011;71284;50.918;7.092;2023-07-31T11:50:00;1.43;;;1.30;;
81841;SDS011;71284;50.918;7.092;2023-07-31T11:52:27;2.10;;;1.13;;
81841;SDS011;71284;50.918;7.092;2023-07-31T11:54:53;1.17;;;0.90;;
81841;SDS011;71284;50.918;7.092;2023-07-31T11:57:20;1.37;;;1.27;;
81841;SDS011;71284;50.918;7.092;2023-07-31T11:59:46;3.33;;;1.57;;
81841;SDS011;71284;50.918;7.092;2023-07-31T12:02:13;1.77;;;1.60;;
81841;SDS011;71284;50.918;7.092;2023-07-31T12:04:39;0.60;;;0.60;;
81841;SDS011;71284;50.918;7.092;2023-07-31T12:07:06;1.20;;;1.07;;
81841;SDS011;71284;50.918;7.092;2023-07-31T12:09:32;1.20;;;0.97;;
81841;SDS011;71284;50.918;7.092;2023-07-31T12:11:59;0.70;;;0.70;;
81841;SDS011;71284;50.918;7.092;2023-07-31T12:14:27;1.37;;;1.00;;
81841;SDS011;71284;50.918;7.092;2023-07-31T12:16:53;0.60;;;0.60;;
81841;SDS011;71284;50.918;7.092;2023-07-31T12:19:21;0.70;;;0.70;;
81841;SDS011;71284;50.918;7.092;2023-07-31T12:21:47;1.00;;;0.80;;
81841;SDS011;71284;50.918;7.092;2023-07-31T12:24:14;0.70;;;0.70;;
81841;SDS011;71284;50.918;7.092;2023-07-31T12:26:42;0.70;;;0.70;;
81841;SDS011;71284;50.918;7.092;2023-07-31T12:29:07;4.73;;;0.93;;
81841;SDS011;71284;50.918;7.092;2023-07-31T12:31:34;2.33;;;0.73;;
81841;SDS011;71284;50.918;7.092;2023-07-31T12:34:00;1.43;;;0.67;;
81841;SDS011;71284;50.918;7.092;2023-07-31T12:36:27;0.80;;;0.80;;
81841;SDS011;71284;50.918;7.092;2023-07-31T12:38:54;1.10;;;1.00;;
81841;SDS011;71284;50.918;7.092;2023-07-31T12:41:20;1.00;;;0.90;;
81841;SDS011;71284;50.918;7.092;2023-07-31T12:43:47;0.67;;;0.67;;
81841;SDS011;71284;50.918;7.092;2023-07-31T12:46:13;0.80;;;0.70;;
81841;SDS011;71284;50.918;7.092;2023-07-31T12:48:40;1.77;;;1.20;;
81841;SDS011;71284;50.918;7.092;2023-07-31T12:51:06;1.00;;;0.90;;
81841;SDS011;71284;50.918;7.092;2023-07-31T12:53:33;1.03;;;1.03;;
81841;SDS011;71284;50.918;7.092;2023-07-31T12:56:00;1.80;;;1.37;;
81841;SDS011;71284;50.918;7.092;2023-07-31T12:58:27;1.90;;;1.53;;
81841;SDS011;71284;50.918;7.092;2023-07-31T13:00:54;3.17;;;1.30;;
81841;SDS011;71284;50.918;7.092;2023-07-31T13:03:20;1.37;;;1.30;;
81841;SDS011;71284;50.918;7.092;2023-07-31T13:05:47;4.20;;;1.80;;
81841;SDS011;71284;50.918;7.092;2023-07-31T13:08:14;1.80;;;1.70;;
81841;SDS011;71284;50.918;7.092;2023-07-31T13:10:41;2.20;;;2.10;;
81841;SDS011;71284;50.918;7.092;2023-07-31T13:13:07;1.47;;;1.37;;
81841;SDS011;71284;50.918;7.092;2023-07-31T13:15:34;1.60;;;1.50;;
81841;SDS011;71284;50.918;7.092;2023-07-31T13:18:00;1.93;;;1.83;;
81841;SDS011;71284;50.918;7.092;2023-07-31T13:20:27;3.33;;;3.13;;
81841;SDS011;71284;50.918;7.092;2023-07-31T13:22:53;2.87;;;2.00;;
81841;SDS011;71284;50.918;7.092;2023-07-31T13:25:20;3.87;;;2.50;;
81841;SDS011;71284;50.918;7.092;2023-07-31T13:27:47;2.40;;;2.20;;
81841;SDS011;71284;50.918;7.092;2023-07-31T13:30:13;5.60;;;2.33;;
81841;SDS011;71284;50.918;7.092;2023-07-31T13:32:40;3.60;;;2.50;;
81841;SDS011;71284;50.918;7.092;2023-07-31T13:35:07;2.40;;;2.20;;
81841;SDS011;71284;50.918;7.092;2023-07-31T13:37:34;4.00;;;2.30;;
81841;SDS011;71284;50.918;7.092;2023-07-31T13:40:00;3.77;;;2.77;;
81841;SDS011;71284;50.918;7.092;2023-07-31T13:42:27;6.57;;;2.70;;
81841;SDS011;71284;50.918;7.092;2023-07-31T13:44:53;2.50;;;2.30;;
81841;SDS011;71284;50.918;7.092;2023-07-31T13:47:20;4.60;;;2.90;;
81841;SDS011;71284;50.918;7.092;2023-07-31T13:49:46;2.70;;;2.50;;
81841;SDS011;71284;50.918;7.092;2023-07-31T13:52:13;2.43;;;2.23;;
81841;SDS011;71284;50.918;7.092;2023-07-31T13:54:40;2.63;;;2.43;;
81841;SDS011;71284;50.918;7.092;2023-07-31T13:57:06;2.97;;;2.67;;
81841;SDS011;71284;50.918;7.092;2023-07-31T13:59:33;5.10;;;2.60;;
81841;SDS011;71284;50.918;7.092;2023-07-31T14:01:59;2.60;;;2.10;;
81841;SDS011;71284;50.918;7.092;2023-07-31T14:04:26;2.13;;;1.80;;
81841;SDS011;71284;50.918;7.092;2023-07-31T14:06:53;5.80;;;2.63;;
81841;SDS011;71284;50.918;7.092;2023-07-31T14:09:19;2.87;;;1.90;;
81841;SDS011;71284;50.918;7.092;2023-07-31T14:11:46;2.80;;;1.60;;
81841;SDS011;71284;50.918;7.092;2023-07-31T14:14:12;2.40;;;1.97;;
81841;SDS011;71284;50.918;7.092;2023-07-31T14:16:39;2.40;;;2.20;;
81841;SDS011;71284;50.918;7.092;2023-07-31T14:19:05;5.00;;;1.80;;
81841;SDS011;71284;50.918;7.092;2023-07-31T14:21:32;3.53;;;1.93;;
81841;SDS011;71284;50.918;7.092;2023-07-31T14:23:59;1.80;;;1.70;;
81841;SDS011;71284;50.918;7.092;2023-07-31T14:26:25;1.63;;;1.53;;
81841;SDS011;71284;50.918;7.092;2023-07-31T14:28:52;2.90;;;1.90;;
81841;SDS011;71284;50.918;7.092;2023-07-31T14:31:18;2.00;;;1.37;;
81841;SDS011;71284;50.918;7.092;2023-07-31T14:33:45;3.47;;;1.77;;
81841;SDS011;71284;50.918;7.092;2023-07-31T14:36:12;1.77;;;1.67;;
81841;SDS011;71284;50.918;7.092;2023-07-31T14:38:38;2.43;;;2.27;;
81841;SDS011;71284;50.918;7.092;2023-07-31T14:41:05;2.10;;;2.00;;
81841;SDS011;71284;50.918;7.092;2023-07-31T14:43:31;5.33;;;2.10;;
81841;SDS011;71284;50.918;7.092;2023-07-31T14:45:58;2.13;;;2.03;;